sensor_id;sensor_type;location;lat;lon;timestamp;pressure;altitude;pressure_sealevel;temperature;humidity
25130;BME280;13308;50.860;13.664;2023-02-15T06:57:14;97948.91;;;0.01;100.00
25130;BME280;13308;50.860;13.664;2023-02-15T06:59:39;97951.94;;;0.08;100.00
25130;BME280;13308;50.860;13.664;2023-02-15T07:02:05;97942.66;;;0.09;100.00
25130;BME280;13308;50.860;13.664;2023-02-15T07:04:30;97955.41;;;0.17;100.00
25130;BME280;13308;50.860;13.664;2023-02-15T07:06:56;97942.47;;;0.22;100.00
25130;BME280;13308;50.860;13.664;2023-02-15T07:09:21;97938.78;;;0.27;100.00
25130;BME280;13308;50.860;13.664;2023-02-15T07:11:47;97945.66;;;0.24;100.00
25130;BME280;13308;50.860;13.664;2023-02-15T07:14:31;97941.59;;;0.39;100.00
25130;BME280;13308;50.860;13.664;2023-02-15T07:16:57;97933.16;;;0.40;100.00
25130;BME280;13308;50.860;13.664;2023-02-15T07:19:22;97933.16;;;0.40;100.00
25130;BME280;13308;50.860;13.664;2023-02-15T07:21:47;97933.13;;;0.49;100.00
25130;BME280;13308;50.860;13.664;2023-02-15T07:24:13;97931.16;;;0.58;100.00
25130;BME280;13308;50.860;13.664;2023-02-15T07:26:39;97924.22;;;0.69;100.00
25130;BME280;13308;50.860;13.664;2023-02-15T07:29:04;97930.88;;;0.80;100.00
25130;BME280;13308;50.860;13.664;2023-02-15T07:31:29;97926.66;;;0.91;100.00
25130;BME280;13308;50.860;13.664;2023-02-15T07:33:55;97927.19;;;1.05;100.00
25130;BME280;13308;50.860;13.664;2023-02-15T07:36:20;97929.53;;;1.15;100.00
25130;BME280;13308;50.860;13.664;2023-02-15T07:38:45;97920.84;;;1.21;100.00
25130;BME280;13308;50.860;13.664;2023-02-15T07:41:13;97919.69;;;1.31;100.00
25130;BME280;13308;50.860;13.664;2023-02-15T07:43:41;97923.56;;;1.42;100.00
25130;BME280;13308;50.860;13.664;2023-02-15T07:46:12;97914.56;;;1.50;100.00
25130;BME280;13308;50.860;13.664;2023-02-15T07:48:38;97918.66;;;1.56;100.00
25130;BME280;13308;50.860;13.664;2023-02-15T07:51:06;97904.94;;;1.73;100.00
25130;BME280;13308;50.860;13.664;2023-02-15T07:53:33;97915.94;;;1.76;100.00
25130;BME280;13308;50.860;13.664;2023-02-15T07:56:04;97905.63;;;1.82;100.00
25130;BME280;13308;50.860;13.664;2023-02-15T07:58:30;97904.53;;;1.95;100.00
25130;BME280;13308;50.860;13.664;2023-02-15T08:01:14;97894.59;;;2.11;100.00
25130;BME280;13308;50.860;13.664;2023-02-15T08:03:40;97895.75;;;2.22;100.00
25130;BME280;13308;50.860;13.664;2023-02-15T08:06:06;97892.13;;;2.30;100.00
25130;BME280;13308;50.860;13.664;2023-02-15T08:08:33;97887.28;;;2.47;100.00
25130;BME280;13308;50.860;13.664;2023-02-15T08:11:14;97881.94;;;2.63;100.00
25130;BME280;13308;50.860;13.664;2023-02-15T08:14:18;97874.66;;;2.79;100.00
25130;BME280;13308;50.860;13.664;2023-02-15T08:16:49;97872.63;;;2.88;100.00
25130;BME280;13308;50.860;13.664;2023-02-15T08:19:21;97874.72;;;3.06;99.23
25130;BME280;13308;50.860;13.664;2023-02-15T08:21:52;97873.22;;;3.21;99.03
25130;BME280;13308;50.860;13.664;2023-02-15T08:24:23;97871.41;;;3.25;99.13
25130;BME280;13308;50.860;13.664;2023-02-15T08:26:49;97866.91;;;3.44;99.13
25130;BME280;13308;50.860;13.664;2023-02-15T08:29:17;97865.38;;;3.59;98.50
25130;BME280;13308;50.860;13.664;2023-02-15T08:31:43;97859.06;;;3.70;97.91
25130;BME280;13308;50.860;13.664;2023-02-15T08:34:11;97865.69;;;3.85;97.72
25130;BME280;13308;50.860;13.664;2023-02-15T08:36:38;97864.94;;;4.00;96.65
25130;BME280;13308;50.860;13.664;2023-02-15T08:39:05;97858.44;;;4.20;96.15
25130;BME280;13308;50.860;13.664;2023-02-15T08:41:33;97869.63;;;4.46;96.07
25130;BME280;13308;50.860;13.664;2023-02-15T08:44:01;97856.91;;;4.69;95.10
25130;BME280;13308;50.860;13.664;2023-02-15T08:46:29;97863.84;;;4.97;95.01
25130;BME280;13308;50.860;13.664;2023-02-15T08:48:55;97872.22;;;5.23;94.36
25130;BME280;13308;50.860;13.664;2023-02-15T08:51:39;97873.47;;;5.45;92.95
25130;BME280;13308;50.860;13.664;2023-02-15T08:54:08;97876.50;;;5.78;92.48
25130;BME280;13308;50.860;13.664;2023-02-15T08:56:37;97872.00;;;6.27;91.40
25130;BME280;13308;50.860;13.664;2023-02-15T08:59:03;97882.81;;;6.65;90.10
25130;BME280;13308;50.860;13.664;2023-02-15T09:01:30;97874.94;;;7.12;90.08
25130;BME280;13308;50.860;13.664;2023-02-15T09:03:58;97882.41;;;7.41;87.18
25130;BME280;13308;50.860;13.664;2023-02-15T09:06:24;97876.03;;;7.96;86.08
25130;BME280;13308;50.860;13.664;2023-02-15T09:08:50;97883.66;;;8.42;87.89
25130;BME280;13308;50.860;13.664;2023-02-15T09:11:24;97875.22;;;8.64;83.67
25130;BME280;13308;50.860;13.664;2023-02-15T09:13:58;97873.63;;;8.63;82.68
25130;BME280;13308;50.860;13.664;2023-02-15T09:16:25;97876.66;;;8.98;82.57
25130;BME280;13308;50.860;13.664;2023-02-15T09:18:51;97877.34;;;9.42;80.84
25130;BME280;13308;50.860;13.664;2023-02-15T09:21:22;97882.66;;;9.82;78.61
25130;BME280;13308;50.860;13.664;2023-02-15T09:23:50;97885.97;;;10.12;78.71
25130;BME280;13308;50.860;13.664;2023-02-15T09:26:20;97880.84;;;10.21;76.09
25130;BME280;13308;50.860;13.664;2023-02-15T09:28:47;97879.34;;;10.62;76.56
25130;BME280;13308;50.860;13.664;2023-02-15T09:31:14;97887.25;;;10.88;75.83
25130;BME280;13308;50.860;13.664;2023-02-15T09:33:41;97885.63;;;11.29;74.68
25130;BME280;13308;50.860;13.664;2023-02-15T09:38:39;97873.81;;;11.32;72.37
25130;BME280;13308;50.860;13.664;2023-02-15T09:44:40;97883.16;;;11.87;72.29
25130;BME280;13308;50.860;13.664;2023-02-15T09:50:07;97877.09;;;12.20;70.56
25130;BME280;13308;50.860;13.664;2023-02-15T09:55:54;97872.22;;;12.42;69.87
25130;BME280;13308;50.860;13.664;2023-02-15T10:01:25;97874.31;;;12.82;67.59
25130;BME280;13308;50.860;13.664;2023-02-15T10:04:07;97873.84;;;12.90;66.01
25130;BME280;13308;50.860;13.664;2023-02-15T10:09:33;97874.41;;;13.96;63.53
25130;BME280;13308;50.860;13.664;2023-02-15T10:20:41;97880.63;;;15.82;57.35
25130;BME280;13308;50.860;13.664;2023-02-15T10:23:42;97885.44;;;16.40;55.36
25130;BME280;13308;50.860;13.664;2023-02-15T10:26:21;97887.63;;;17.00;54.37
25130;BME280;13308;50.860;13.664;2023-02-15T10:28:50;97881.72;;;17.46;54.02
25130;BME280;13308;50.860;13.664;2023-02-15T10:31:50;97881.00;;;17.58;52.19
25130;BME280;13308;50.860;13.664;2023-02-15T10:34:44;97878.78;;;18.10;53.04
25130;BME280;13308;50.860;13.664;2023-02-15T10:45:42;97861.72;;;19.24;46.61
25130;BME280;13308;50.860;13.664;2023-02-15T10:54:14;97839.34;;;18.99;47.60
25130;BME280;13308;50.860;13.664;2023-02-15T11:00:37;97837.66;;;19.27;50.33
25130;BME280;13308;50.860;13.664;2023-02-15T11:06:08;97838.75;;;19.63;44.29
25130;BME280;13308;50.860;13.664;2023-02-15T11:09:00;97834.44;;;20.05;45.38
25130;BME280;13308;50.860;13.664;2023-02-15T11:11:30;97827.50;;;20.31;45.72
25130;BME280;13308;50.860;13.664;2023-02-15T11:14:01;97828.97;;;20.23;43.21
25130;BME280;13308;50.860;13.664;2023-02-15T11:16:40;97829.31;;;20.25;42.25
25130;BME280;13308;50.860;13.664;2023-02-15T11:19:16;97821.19;;;20.48;43.62
25130;BME280;13308;50.860;13.664;2023-02-15T11:21:48;97805.44;;;20.42;44.96
25130;BME280;13308;50.860;13.664;2023-02-15T11:24:17;97812.03;;;20.48;42.81
25130;BME280;13308;50.860;13.664;2023-02-15T11:26:47;97818.63;;;20.63;39.85
25130;BME280;13308;50.860;13.664;2023-02-15T11:29:23;97805.44;;;20.42;41.02
25130;BME280;13308;50.860;13.664;2023-02-15T11:31:55;97812.25;;;21.02;42.05
25130;BME280;13308;50.860;13.664;2023-02-15T11:34:29;97812.16;;;20.84;41.02
25130;BME280;13308;50.860;13.664;2023-02-15T11:36:55;97810.91;;;21.15;41.80
25130;BME280;13308;50.860;13.664;2023-02-15T11:39:24;97813.06;;;21.11;43.85
25130;BME280;13308;50.860;13.664;2023-02-15T11:41:55;97810.66;;;20.92;40.88
25130;BME280;13308;50.860;13.664;2023-02-15T11:44:30;97809.44;;;21.02;43.12
25130;BME280;13308;50.860;13.664;2023-02-15T11:46:58;97805.75;;;21.14;41.32
25130;BME280;13308;50.860;13.664;2023-02-15T11:49:31;97808.69;;;20.71;40.36
25130;BME280;13308;50.860;13.664;2023-02-15T11:52:02;97790.72;;;20.90;40.22
25130;BME280;13308;50.860;13.664;2023-02-15T11:54:31;97791.28;;;21.42;43.04
25130;BME280;13308;50.860;13.664;2023-02-15T11:57:11;97791.34;;;20.94;39.68
25130;BME280;13308;50.860;13.664;2023-02-15T11:59:42;97795.13;;;21.09;39.85
25130;BME280;13308;50.860;13.664;2023-02-15T12:02:18;97788.63;;;21.39;41.36
25130;BME280;13308;50.860;13.664;2023-02-15T12:04:48;97785.81;;;21.48;39.29
25130;BME280;13308;50.860;13.664;2023-02-15T12:07:23;97784.91;;;21.87;39.85
25130;BME280;13308;50.860;13.664;2023-02-15T12:10:02;97785.53;;;21.91;39.34
25130;BME280;13308;50.860;13.664;2023-02-15T12:12:32;97788.34;;;21.82;41.14
25130;BME280;13308;50.860;13.664;2023-02-15T12:15:02;97781.72;;;22.30;41.57
25130;BME280;13308;50.860;13.664;2023-02-15T12:17:32;97792.19;;;22.20;41.10
25130;BME280;13308;50.860;13.664;2023-02-15T12:22:50;97776.25;;;22.35;41.18
25130;BME280;13308;50.860;13.664;2023-02-15T12:25:26;97770.06;;;22.64;41.78
25130;BME280;13308;50.860;13.664;2023-02-15T12:27:54;97764.97;;;22.53;40.72
25130;BME280;13308;50.860;13.664;2023-02-15T12:30:29;97772.81;;;23.05;41.36
25130;BME280;13308;50.860;13.664;2023-02-15T12:32:59;97764.78;;;22.89;41.29
25130;BME280;13308;50.860;13.664;2023-02-15T12:35:32;97773.16;;;23.31;41.63
25130;BME280;13308;50.860;13.664;2023-02-15T12:38:03;97760.72;;;23.23;40.63
25130;BME280;13308;50.860;13.664;2023-02-15T12:40:30;97753.34;;;22.93;40.86
25130;BME280;13308;50.860;13.664;2023-02-15T12:42:56;97756.00;;;22.64;39.31
25130;BME280;13308;50.860;13.664;2023-02-15T12:45:29;97755.53;;;22.98;40.09
25130;BME280;13308;50.860;13.664;2023-02-15T12:48:20;97760.97;;;23.01;39.76
25130;BME280;13308;50.860;13.664;2023-02-15T12:50:47;97754.03;;;22.79;40.10
25130;BME280;13308;50.860;13.664;2023-02-15T12:53:16;97737.91;;;23.12;39.60
25130;BME280;13308;50.860;13.664;2023-02-15T12:56:00;97741.22;;;23.34;39.34
25130;BME280;13308;50.860;13.664;2023-02-15T12:58:38;97735.31;;;23.70;38.57
25130;BME280;13308;50.860;13.664;2023-02-15T13:01:18;97741.97;;;23.58;38.30
25130;BME280;13308;50.860;13.664;2023-02-15T13:04:03;97732.88;;;23.39;38.44
25130;BME280;13308;50.860;13.664;2023-02-15T13:06:32;97726.31;;;23.19;38.39
25130;BME280;13308;50.860;13.664;2023-02-15T13:09:15;97725.47;;;23.80;37.49
25130;BME280;13308;50.860;13.664;2023-02-15T13:11:43;97718.59;;;24.39;37.25
25130;BME280;13308;50.860;13.664;2023-02-15T13:14:31;97721.13;;;24.51;37.48
25130;BME280;13308;50.860;13.664;2023-02-15T13:17:00;97719.28;;;24.48;37.50
25130;BME280;13308;50.860;13.664;2023-02-15T13:22:02;97726.47;;;25.33;37.94
25130;BME280;13308;50.860;13.664;2023-02-15T13:24:35;97710.25;;;24.59;38.23
25130;BME280;13308;50.860;13.664;2023-02-15T13:27:02;97716.34;;;24.72;38.17
25130;BME280;13308;50.860;13.664;2023-02-15T13:29:31;97721.13;;;24.66;37.96
25130;BME280;13308;50.860;13.664;2023-02-15T13:32:22;97724.34;;;25.28;37.17
25130;BME280;13308;50.860;13.664;2023-02-15T13:34:57;97729.53;;;25.75;37.00
25130;BME280;13308;50.860;13.664;2023-02-15T13:37:37;97731.72;;;25.65;36.57
25130;BME280;13308;50.860;13.664;2023-02-15T13:40:21;97728.19;;;25.70;35.28
25130;BME280;13308;50.860;13.664;2023-02-15T13:42:54;97726.78;;;26.06;36.31
25130;BME280;13308;50.860;13.664;2023-02-15T13:45:32;97717.53;;;25.60;35.75
25130;BME280;13308;50.860;13.664;2023-02-15T13:48:22;97730.75;;;26.45;35.10
25130;BME280;13308;50.860;13.664;2023-02-15T13:51:12;97723.88;;;26.88;33.72
25130;BME280;13308;50.860;13.664;2023-02-15T13:54:05;97720.09;;;26.96;34.24
25130;BME280;13308;50.860;13.664;2023-02-15T13:59:55;97720.91;;;25.84;35.47
25130;BME280;13308;50.860;13.664;2023-02-15T14:05:53;97722.03;;;25.92;35.03
25130;BME280;13308;50.860;13.664;2023-02-15T14:08:58;97721.66;;;26.61;33.71
25130;BME280;13308;50.860;13.664;2023-02-15T14:11:56;97722.47;;;27.09;33.57
25130;BME280;13308;50.860;13.664;2023-02-15T14:15:08;97726.66;;;27.19;33.16
25130;BME280;13308;50.860;13.664;2023-02-15T14:17:53;97731.34;;;27.22;33.55
25130;BME280;13308;50.860;13.664;2023-02-15T14:23:40;97723.66;;;26.91;33.13
25130;BME280;13308;50.860;13.664;2023-02-15T14:26:21;97724.38;;;26.81;33.89
25130;BME280;13308;50.860;13.664;2023-02-15T14:29:41;97728.28;;;27.31;33.98
25130;BME280;13308;50.860;13.664;2023-02-15T14:31:45;97713.97;;;26.67;33.48
25130;BME280;13308;50.860;13.664;2023-02-15T14:34:20;97711.81;;;23.35;37.37
25130;BME280;13308;50.860;13.664;2023-02-15T14:36:49;97705.50;;;21.05;41.38
25130;BME280;13308;50.860;13.664;2023-02-15T14:42:27;97698.34;;;19.09;44.62
25130;BME280;13308;50.860;13.664;2023-02-15T14:45:13;97687.34;;;18.34;46.27
25130;BME280;13308;50.860;13.664;2023-02-15T14:47:51;97686.41;;;17.62;47.43
25130;BME280;13308;50.860;13.664;2023-02-15T14:50:37;97677.59;;;16.78;49.78
25130;BME280;13308;50.860;13.664;2023-02-15T14:53:40;97674.97;;;16.23;50.22
25130;BME280;13308;50.860;13.664;2023-02-15T14:58:46;97679.56;;;15.23;53.04
25130;BME280;13308;50.860;13.664;2023-02-15T15:01:30;97678.56;;;15.14;52.72
25130;BME280;13308;50.860;13.664;2023-02-15T15:04:08;97687.69;;;15.14;52.40
25130;BME280;13308;50.860;13.664;2023-02-15T15:06:40;97684.50;;;14.73;54.20
25130;BME280;13308;50.860;13.664;2023-02-15T15:09:22;97686.06;;;14.74;54.26
25130;BME280;13308;50.860;13.664;2023-02-15T15:11:51;97681.19;;;14.36;55.39
25130;BME280;13308;50.860;13.664;2023-02-15T15:17:05;97685.56;;;14.10;55.48
25130;BME280;13308;50.860;13.664;2023-02-15T15:22:22;97681.59;;;12.91;60.28
25130;BME280;13308;50.860;13.664;2023-02-15T15:32:49;97676.22;;;11.14;66.86
25130;BME280;13308;50.860;13.664;2023-02-15T15:35:37;97673.66;;;10.44;69.41
25130;BME280;13308;50.860;13.664;2023-02-15T15:38:43;97664.22;;;9.71;74.54
25130;BME280;13308;50.860;13.664;2023-02-15T15:41:43;97659.44;;;9.40;75.33
25130;BME280;13308;50.860;13.664;2023-02-15T15:47:08;97654.41;;;8.60;79.33
25130;BME280;13308;50.860;13.664;2023-02-15T15:49:38;97650.94;;;8.10;81.19
25130;BME280;13308;50.860;13.664;2023-02-15T15:52:14;97645.13;;;7.71;83.23
25130;BME280;13308;50.860;13.664;2023-02-15T15:54:41;97643.47;;;7.63;83.52
25130;BME280;13308;50.860;13.664;2023-02-15T15:57:26;97646.47;;;7.48;86.09
25130;BME280;13308;50.860;13.664;2023-02-15T15:59:53;97639.34;;;7.40;86.38
25130;BME280;13308;50.860;13.664;2023-02-15T16:02:19;97629.44;;;7.32;87.23
25130;BME280;13308;50.860;13.664;2023-02-15T16:04:45;97635.81;;;7.03;88.85
25130;BME280;13308;50.860;13.664;2023-02-15T16:07:22;97627.94;;;6.98;88.42
25130;BME280;13308;50.860;13.664;2023-02-15T16:09:58;97624.34;;;6.94;88.51
25130;BME280;13308;50.860;13.664;2023-02-15T16:12:25;97632.91;;;6.89;88.91
25130;BME280;13308;50.860;13.664;2023-02-15T16:14:52;97633.94;;;6.77;88.96
25130;BME280;13308;50.860;13.664;2023-02-15T16:17:26;97645.56;;;6.67;89.28
25130;BME280;13308;50.860;13.664;2023-02-15T16:20:13;97634.63;;;6.71;89.59
25130;BME280;13308;50.860;13.664;2023-02-15T16:22:40;97636.81;;;6.55;89.95
25130;BME280;13308;50.860;13.664;2023-02-15T16:25:31;97649.44;;;6.37;91.31
25130;BME280;13308;50.860;13.664;2023-02-15T16:28:13;97641.13;;;6.30;91.15
25130;BME280;13308;50.860;13.664;2023-02-15T16:30:40;97650.47;;;6.25;90.86
25130;BME280;13308;50.860;13.664;2023-02-15T16:35:35;97642.28;;;5.99;92.15
25130;BME280;13308;50.860;13.664;2023-02-15T16:38:02;97642.94;;;5.93;92.47
25130;BME280;13308;50.860;13.664;2023-02-15T16:40:38;97641.03;;;5.74;93.51
25130;BME280;13308;50.860;13.664;2023-02-15T16:43:12;97634.69;;;5.67;94.08
25130;BME280;13308;50.860;13.664;2023-02-15T16:45:38;97640.06;;;5.60;94.74
25130;BME280;13308;50.860;13.664;2023-02-15T16:48:13;97633.31;;;5.54;94.69
25130;BME280;13308;50.860;13.664;2023-02-15T16:50:47;97629.59;;;5.43;94.39
25130;BME280;13308;50.860;13.664;2023-02-15T16:53:17;97634.81;;;5.29;95.60
25130;BME280;13308;50.860;13.664;2023-02-15T16:55:49;97646.41;;;5.22;96.85
25130;BME280;13308;50.860;13.664;2023-02-15T16:58:17;97643.63;;;5.19;96.91
25130;BME280;13308;50.860;13.664;2023-02-15T17:00:42;97636.72;;;5.06;97.04
25130;BME280;13308;50.860;13.664;2023-02-15T17:05:47;97634.31;;;4.82;98.24
25130;BME280;13308;50.860;13.664;2023-02-15T17:13:34;97633.31;;;4.52;99.28
25130;BME280;13308;50.860;13.664;2023-02-15T17:18:27;97621.63;;;4.51;99.88
25130;BME280;13308;50.860;13.664;2023-02-15T17:20:58;97630.28;;;4.38;99.68
25130;BME280;13308;50.860;13.664;2023-02-15T17:23:35;97622.72;;;4.31;99.99
25130;BME280;13308;50.860;13.664;2023-02-15T17:26:13;97619.34;;;4.19;100.00
25130;BME280;13308;50.860;13.664;2023-02-15T17:28:46;97624.75;;;4.15;100.00
25130;BME280;13308;50.860;13.664;2023-02-15T17:31:13;97624.81;;;4.19;100.00
25130;BME280;13308;50.860;13.664;2023-02-15T17:33:40;97625.03;;;4.10;100.00
25130;BME280;13308;50.860;13.664;2023-02-15T17:36:19;97624.34;;;3.98;99.91
25130;BME280;13308;50.860;13.664;2023-02-15T17:41:21;97609.56;;;3.99;100.00
25130;BME280;13308;50.860;13.664;2023-02-15T17:43:46;97608.91;;;4.05;99.36
25130;BME280;13308;50.860;13.664;2023-02-15T17:46:12;97613.41;;;3.98;99.19
25130;BME280;13308;50.860;13.664;2023-02-15T17:48:39;97612.78;;;4.04;98.40
25130;BME280;13308;50.860;13.664;2023-02-15T17:51:09;97611.66;;;4.05;98.11
25130;BME280;13308;50.860;13.664;2023-02-15T17:53:36;97613.88;;;4.00;97.77
25130;BME280;13308;50.860;13.664;2023-02-15T17:56:02;97612.56;;;3.94;97.94
25130;BME280;13308;50.860;13.664;2023-02-15T17:58:35;97606.31;;;3.93;97.97
25130;BME280;13308;50.860;13.664;2023-02-15T18:01:06;97621.03;;;3.89;98.11
25130;BME280;13308;50.860;13.664;2023-02-15T18:03:52;97606.78;;;3.80;98.24
25130;BME280;13308;50.860;13.664;2023-02-15T18:06:38;97609.69;;;3.71;98.25
25130;BME280;13308;50.860;13.664;2023-02-15T18:09:22;97601.16;;;3.73;98.49
25130;BME280;13308;50.860;13.664;2023-02-15T18:12:24;97604.22;;;3.71;98.33
25130;BME280;13308;50.860;13.664;2023-02-15T18:14:51;97607.25;;;3.66;97.97
25130;BME280;13308;50.860;13.664;2023-02-15T18:17:17;97601.25;;;3.61;98.53
25130;BME280;13308;50.860;13.664;2023-02-15T18:19:44;97605.56;;;3.62;98.39
25130;BME280;13308;50.860;13.664;2023-02-15T18:22:15;97607.78;;;3.56;98.24
25130;BME280;13308;50.860;13.664;2023-02-15T18:24:41;97601.44;;;3.52;98.21
25130;BME280;13308;50.860;13.664;2023-02-15T18:27:07;97594.06;;;3.53;97.84
25130;BME280;13308;50.860;13.664;2023-02-15T18:29:32;97594.69;;;3.46;98.08
25130;BME280;13308;50.860;13.664;2023-02-15T18:31:59;97583.25;;;3.41;98.11
25130;BME280;13308;50.860;13.664;2023-02-15T18:34:35;97588.91;;;3.32;98.99
25130;BME280;13308;50.860;13.664;2023-02-15T18:37:03;97593.47;;;3.28;99.03
25130;BME280;13308;50.860;13.664;2023-02-15T18:39:36;97589.97;;;3.28;99.26
25130;BME280;13308;50.860;13.664;2023-02-15T18:42:05;97602.44;;;3.29;99.43
25130;BME280;13308;50.860;13.664;2023-02-15T18:44:33;97593.63;;;3.20;98.94
25130;BME280;13308;50.860;13.664;2023-02-15T18:46:58;97603.03;;;3.22;98.66
25130;BME280;13308;50.860;13.664;2023-02-15T18:49:23;97591.97;;;3.15;99.07
25130;BME280;13308;50.860;13.664;2023-02-15T18:51:49;97600.06;;;3.12;99.31
25130;BME280;13308;50.860;13.664;2023-02-15T18:54:18;97601.22;;;3.11;99.42
25130;BME280;13308;50.860;13.664;2023-02-15T18:56:50;97595.28;;;3.09;98.96
25130;BME280;13308;50.860;13.664;2023-02-15T18:59:17;97599.25;;;3.11;99.21
25130;BME280;13308;50.860;13.664;2023-02-15T19:01:42;97598.22;;;3.16;98.68
25130;BME280;13308;50.860;13.664;2023-02-15T19:04:08;97602.44;;;3.13;98.50
25130;BME280;13308;50.860;13.664;2023-02-15T19:06:33;97607.25;;;3.20;98.03
25130;BME280;13308;50.860;13.664;2023-02-15T19:08:59;97613.06;;;3.18;97.60
25130;BME280;13308;50.860;13.664;2023-02-15T19:11:26;97611.84;;;3.16;97.93
25130;BME280;13308;50.860;13.664;2023-02-15T19:13:52;97606.66;;;3.11;98.21
25130;BME280;13308;50.860;13.664;2023-02-15T19:16:29;97606.47;;;3.04;98.39
25130;BME280;13308;50.860;13.664;2023-02-15T19:18:55;97599.63;;;3.10;97.94
25130;BME280;13308;50.860;13.664;2023-02-15T19:21:21;97598.47;;;3.11;97.62
25130;BME280;13308;50.860;13.664;2023-02-15T19:23:55;97601.91;;;3.08;96.82
25130;BME280;13308;50.860;13.664;2023-02-15T19:26:22;97605.06;;;3.10;96.68
25130;BME280;13308;50.860;13.664;2023-02-15T19:28:48;97607.91;;;3.13;96.42
